Observations for YEOVILTON NAVY, United Kingdom (EGDY)

EGDY 250250Z AUTO 26001KT 9999 OVC060/// 02/02 Q1014
EGDY 250150Z AUTO 24003KT 9999 FEW022/// BKN110/// 03/02 Q1014 RERA 
EGDY 250050Z AUTO 22002KT 9999 -RA FEW027/// SCT036/// BKN046/// 03/02 Q1014
EGDY 242350Z AUTO 28012KT 9999 BKN050/// 03/01 Q1013
EGDY 242250Z AUTO 13004KT 6000 BR FEW050/// M01/M01 Q1013   
EGDY 242150Z AUTO 33001KT 9999 BKN039/// 00/M00 Q1013   
EGDY 242050Z AUTO 13005KT 9999 FEW170/// M01/M01 Q1013  
EGDY 241950Z AUTO 11002KT 7000 BR SCT170/// M00/M01 Q1013   
EGDY 241850Z AUTO 27001KT 9999 FEW170/// 01/01 Q1013
EGDY 241750Z AUTO 23002KT 9999 FEW180/// 03/02 Q1013
EGDY 241650Z AUTO 32003KT 9999 SCT180/// 05/02 Q1012
EGDY 241550Z AUTO 01001KT 9999 FEW170/// 07/04 Q1012
EGDY 241450Z 32003KT 9999 FEW020 09/03 Q1012 BLU NOSIG  
EGDY 241350Z 29001KT 9999 FEW018 09/05 Q1012 BLU NOSIG  
EGDY 241250Z 23001KT 9999 FEW020 09/05 Q1012 BLU NOSIG  
EGDY 241150Z 24002KT 9999 FEW002 SCT110 07/05 Q1012 BLU NOSIG   
EGDY 241050Z 20001KT 9999 FEW001 BKN110 06/05 Q1012 BLU NOSIG   
EGDY 240950Z 36001KT 9999 FEW002 BKN110 05/05 Q1011 BLU NOSIG   
EGDY 240850Z 14001KT 9999 FEW020 BKN110 05/05 Q1011 BLU NOSIG   
EGDY 240750Z 29002KT 9999 FEW020 BKN110 05/04 Q1010 BLU NOSIG   
EGDY 240650Z 30001KT 9999 FEW030 BKN070 06/05 Q1009 BLU NOSIG   
EGDY 240550Z 27006KT 9999 RA BKN028 06/04 Q1009 BLU 
EGDY 240450Z 24001KT 9999 -RA BKN030 05/05 Q1008 BLU
EGDY 240350Z 28003KT CAVOK 05/04 Q1007 BLU  
EGDY 240250Z 25001KT CAVOK 05/05 Q1007 BLU